Latest Coastal Weather Observations for Willis Island

IDQ60701

Issued at 12:12 pm EST Wednesday 24 May 2017 (issued every 10 minutes, with the page automatically refreshed every 10 minutes)

About coastal observations | Map of coastal stations | Coastal observations for QLD | Marine services | Other Formats
Station Details ID: 200283 Name: WILLIS ISLAND Lat: -16.29 Lon: 149.97 Height: 9.29 m
Data from the previous 72 hours. | See also: Recent months at Willis Island
Date/Time
EST
Temp
°C
Wind Pressure Rain since
9am
mm
Weather Cloud Vis
km
Sea
Height
m
Swell
Dir  Spd
kts
Gust
kts
hPa Trend Height
m
Period
s
Dir
24/12:00pm 28.0 SE 17 19 1015.0 F 0.0 Fine Partly cloudy 20 2 2.0 9 SE
24/11:30am 28.4 SE 16 17 1015.5 - 0.0 - - - - - - -
24/11:00am 28.1 SE 16 20 1015.9 - 0.0 - - - - - - -
24/10:30am 27.9 ESE 17 21 1016.2 - 0.0 - - - - - - -
24/10:00am 27.6 SE 18 21 1016.5 - 0.0 - - - - - - -
24/09:30am 27.4 SE 19 22 1016.6 - 0.0 - - - - - - -
24/09:00am 27.5 SE 19 23 1016.4 R 0.0 Fine Partly cloudy 25 2 2.2 7 SE
24/08:30am 27.0 SE 20 23 1016.2 - 0.0 - - - - - - -
24/08:00am 26.7 SE 20 23 1016.1 - 0.0 - - - - - - -
24/07:30am 26.2 SE 20 23 1015.8 - 0.0 - - - - - - -
24/07:00am 26.1 SE 21 24 1015.3 - 0.0 - - - - - - -
24/06:30am 25.7 SE 21 25 1015.0 - 0.0 - - - - - - -
24/06:00am 25.7 SE 22 26 1014.7 R 0.0 - - - - - - -
24/05:30am 25.6 SE 20 24 1014.4 - 0.0 - - - - - - -
24/05:00am 25.9 ESE 22 26 1014.2 - 0.0 - - - - - - -
24/04:30am 25.8 ESE 21 24 1014.0 - 0.0 - - - - - - -
24/04:00am 25.8 SE 23 26 1013.8 - 0.0 - - - - - - -
24/03:30am 25.7 SE 23 27 1013.6 - 0.0 - - - - - - -
24/03:00am 25.9 ESE 22 26 1013.7 R 0.0 - - - - - - -
24/02:30am 25.9 SE 24 27 1013.6 - 0.0 - - - - - - -
24/02:00am 26.0 SE 23 27 1013.8 - 0.0 - - - - - - -
24/01:30am 26.0 SE 22 27 1014.0 - 0.0 - - - - - - -
24/01:00am 26.0 ESE 19 23 1014.3 - 0.0 - - - - - - -
24/12:30am 26.0 SE 21 25 1014.6 - 0.0 - - - - - - -
24/12:00am 26.2 ESE 21 25 1014.7 R 0.0 - - - - - - -
 
Date/Time
EST
Temp
°C
Wind Pressure Rain since
9am
mm
Weather Cloud Vis
km
Sea
Height
m
Swell
Dir  Spd
kts
Gust
kts
hPa Trend Height
m
Period
s
Dir
23/11:30pm 26.2 ESE 20 25 1014.7 - 0.0 - - - - - - -
23/11:00pm 26.3 ESE 20 24 1014.9 - 0.0 - - - - - - -
23/10:30pm 26.2 ESE 22 25 1015.0 - 0.0 - - - - - - -
23/10:00pm 26.2 ESE 21 25 1015.0 - 0.0 - - - - - - -
23/09:30pm 26.3 SE 22 26 1014.8 - 0.0 - - - - - - -
23/09:00pm 26.3 SE 22 25 1014.8 R 0.0 - - - - - - -
23/08:30pm 26.3 ESE 21 25 1014.6 - 0.0 - - - - - - -
23/08:00pm 26.4 SE 22 25 1014.4 - 0.0 - - - - - - -
23/07:30pm 26.3 SE 22 25 1014.2 - 0.0 - - - - - - -
23/07:00pm 26.3 SE 21 24 1013.8 - 0.0 - - - - - - -
23/06:30pm 26.2 SE 20 24 1013.3 - 0.0 - - - - - - -
23/06:00pm 26.2 SE 20 24 1012.9 F 0.0 Haze Partly cloudy 15 2 2.0 9 SE
23/05:30pm 26.5 ESE 20 24 1012.7 - 0.0 - - - - - - -
23/05:00pm 26.6 SE 21 25 1012.4 - 0.0 - - - - - - -
23/04:30pm 26.8 SE 20 25 1012.2 - 0.0 - - - - - - -
23/04:00pm 27.2 SE 21 25 1012.2 - 0.0 - - - - - - -
23/03:30pm 27.1 SE 20 24 1012.1 - 0.0 - - - - - - -
23/03:00pm 27.5 SE 21 24 1012.0 F 0.0 Haze Mostly clear 18 2 2.0 9 SE
23/02:30pm 28.0 SE 20 24 1012.0 - 0.0 - - - - - - -
23/02:00pm 28.1 SE 20 23 1012.3 - 0.0 - - - - - - -
23/01:30pm 28.5 ESE 21 24 1012.4 - 0.0 - - - - - - -
23/01:00pm 28.2 SE 20 23 1012.8 - 0.0 - - - - - - -
23/12:30pm 28.6 SE 20 23 1013.1 - 0.0 - - - - - - -
23/12:00pm 28.5 ESE 20 23 1013.7 F 0.0 Fine Mostly clear 20 2 2.0 9 SE
23/11:30am 28.8 ESE 20 23 1014.2 - 0.0 - - - - - - -
23/11:00am 28.7 ESE 20 23 1014.6 - 0.0 - - - - - - -
23/10:30am 28.5 ESE 20 23 1015.0 - 0.0 - - - - - - -
23/10:00am 28.3 ESE 19 22 1015.2 - 0.0 - - - - - - -
23/09:30am 27.7 ESE 19 23 1015.2 - 0.0 - - - - - - -
23/09:00am 27.8 ESE 19 21 1015.2 R 0.0 Fine Mostly clear 20 2 1.8 9 E
23/08:30am 27.4 ESE 20 23 1015.0 - 0.0 - - - - - - -
23/08:00am 27.0 ESE 20 23 1014.8 - 0.0 - - - - - - -
23/07:30am 26.6 ESE 20 24 1014.3 - 0.0 - - - - - - -
23/07:00am 26.2 ESE 19 22 1014.2 - 0.0 - - - - - - -
23/06:30am 26.3 ESE 18 21 1013.7 - 0.0 - - - - - - -
23/06:00am 26.3 ESE 19 21 1013.5 R 0.0 - - - - - - -
23/05:30am 26.3 ESE 19 22 1013.2 - 0.0 - - - - - - -
23/05:00am 26.4 ESE 17 20 1013.1 - 0.0 - - - - - - -
23/04:30am 26.3 ESE 18 19 1013.2 - 0.0 - - - - - - -
23/04:00am 26.2 ESE 16 18 1013.0 - 0.0 - - - - - - -
23/03:30am 26.2 ESE 15 17 1012.9 - 0.0 - - - - - - -
23/03:00am 26.1 SE 14 16 1012.8 R 0.0 - - - - - - -
23/02:30am 26.0 SE 14 15 1013.0 - 0.0 - - - - - - -
23/02:00am 26.2 SE 14 16 1013.2 - 0.0 - - - - - - -
23/01:30am 26.1 SSE 12 14 1013.4 - 0.0 - - - - - - -
23/01:00am 26.1 SE 12 14 1013.6 - 0.0 - - - - - - -
23/12:30am 26.0 SE 13 15 1013.8 - 0.0 - - - - - - -
23/12:00am 25.9 SE 14 16 1014.0 R 0.0 - - - - - - -
 
Date/Time
EST
Temp
°C
Wind Pressure Rain since
9am
mm
Weather Cloud Vis
km
Sea
Height
m
Swell
Dir  Spd
kts
Gust
kts
hPa Trend Height
m
Period
s
Dir
22/11:30pm 25.9 SE 13 15 1014.2 - 0.0 - - - - - - -
22/11:00pm 25.8 SE 14 17 1014.4 - 0.0 - - - - - - -
22/10:30pm 25.6 SE 12 14 1014.4 - 0.0 - - - - - - -
22/10:00pm 25.5 SSE 12 13 1014.3 - 0.0 - - - - - - -
22/09:30pm 25.6 SE 12 14 1014.4 - 0.0 - - - - - - -
22/09:00pm 25.6 SE 14 16 1014.3 S 0.0 - - - - - - -
22/08:30pm 25.6 SE 13 15 1014.2 - 0.0 - - - - - - -
22/08:00pm 25.6 SE 13 15 1014.1 - 0.0 - - - - - - -
22/07:30pm 25.5 SE 13 15 1013.7 - 0.0 - - - - - - -
22/07:00pm 25.6 SE 13 15 1013.3 - 0.0 - - - - - - -
22/06:30pm 25.6 SE 13 16 1013.0 - 0.0 - - - - - - -
22/06:00pm 25.6 SE 13 17 1012.8 F 0.0 Fine Mostly clear 25 1 1.5 8 SE
22/05:30pm 25.7 SE 14 16 1012.7 - 0.0 - - - - - - -
22/05:00pm 26.1 SSE 13 15 1012.5 - 0.0 - - - - - - -
22/04:30pm 26.5 SSE 13 15 1012.4 - 0.0 - - - - - - -
22/04:00pm 26.7 SSE 13 16 1012.2 - 0.0 - - - - - - -
22/03:30pm 27.1 SSE 13 15 1012.1 - 0.0 - - - - - - -
22/03:00pm 27.4 SSE 14 16 1011.9 S 0.0 Fine Mostly clear 30 1 1.5 8 SE
22/02:30pm 27.9 SSE 13 15 1011.8 - 0.0 - - - - - - -
22/02:00pm 27.7 SSE 14 16 1012.1 - 0.0 - - - - - - -
22/01:30pm 28.0 SSE 14 16 1012.3 - 0.0 - - - - - - -
22/01:00pm 27.9 SSE 14 16 1012.7 - 0.0 - - - - - - -
22/12:30pm 28.0 SSE 14 17 1013.1 - 0.0 - - - - - - -
22/12:00pm 28.2 SSE 14 16 1013.5 F 0.0 Fine Mostly clear 25 2 1.4 8 SE
22/11:30am 28.3 SSE 14 17 1013.9 - 0.0 - - - - - - -
22/11:00am 28.0 SSE 15 18 1014.3 - 0.0 - - - - - - -
22/10:30am 27.7 SSE 16 18 1014.6 - 0.0 - - - - - - -
22/10:00am 27.3 SSE 15 18 1014.8 - 0.0 - - - - - - -
22/09:30am 27.4 SSE 15 17 1015.0 - 0.0 - - - - - - -
22/09:00am 27.2 SE 15 17 1014.9 R 0.0 Fine Mostly clear 25 2 1.8 8 SE
22/08:30am 26.8 SSE 16 18 1014.8 - 0.0 - - - - - - -
22/08:00am 26.4 SSE 15 18 1014.7 - 0.0 - - - - - - -
22/07:30am 25.8 SSE 17 19 1014.3 - 0.0 - - - - - - -
22/07:00am 25.7 SSE 17 20 1014.0 - 0.0 - - - - - - -
22/06:30am 25.6 SSE 18 21 1013.7 - 0.0 - - - - - - -
22/06:00am 25.6 SSE 18 21 1013.2 R 0.0 - - - - - - -
22/05:30am 25.6 SE 15 18 1012.9 - 0.0 - - - - - - -
22/05:00am 25.6 SE 17 20 1012.8 - 0.0 - - - - - - -
22/04:30am 25.7 SSE 18 21 1012.5 - 0.0 - - - - - - -
22/04:00am 25.5 SE 17 20 1012.3 - 0.0 - - - - - - -
22/03:30am 25.5 SSE 19 21 1012.3 - 0.0 - - - - - - -
22/03:00am 25.6 SE 19 21 1012.2 R 0.0 - - - - - - -
22/02:30am 25.8 SE 18 21 1012.3 - 0.0 - - - - - - -
22/02:00am 25.6 SE 17 21 1012.5 - 0.0 - - - - - - -
22/01:30am 25.6 SE 19 23 1012.7 - 0.0 - - - - - - -
22/01:00am 25.7 SE 19 23 1013.0 - 0.0 - - - - - - -
22/12:30am 25.7 SE 19 22 1013.2 - 0.0 - - - - - - -
22/12:00am 25.8 SSE 21 24 1013.3 R 0.0 - - - - - - -
 
Date/Time
EST
Temp
°C
Wind Pressure Rain since
9am
mm
Weather Cloud Vis
km
Sea
Height
m
Swell
Dir  Spd
kts
Gust
kts
hPa Trend Height
m
Period
s
Dir
21/11:30pm 25.7 SE 20 24 1013.5 - 0.0 - - - - - - -
21/11:00pm 25.9 SE 20 24 1013.7 - 0.0 - - - - - - -
21/10:30pm 25.9 SE 20 23 1013.8 - 0.0 - - - - - - -
21/10:00pm 25.9 SSE 22 25 1013.9 - 0.0 - - - - - - -
21/09:30pm 25.8 SE 20 24 1013.9 - 0.0 - - - - - - -
21/09:00pm 25.9 SE 20 23 1013.8 F 0.0 - - - - - - -
21/08:30pm 25.9 SE 19 23 1013.7 - 0.0 - - - - - - -
21/08:00pm 25.9 SE 20 23 1013.5 - 0.0 - - - - - - -
21/07:30pm 26.0 SE 20 23 1013.3 - 0.0 - - - - - - -
21/07:00pm 26.0 SE 20 23 1013.0 - 0.0 - - - - - - -
21/06:30pm 26.0 SE 19 23 1012.6 - 0.0 - - - - - - -
21/06:00pm 26.1 SE 21 25 1012.4 R 0.0 Haze Mostly clear 15 2 2.0 8 SE
21/05:30pm 26.1 SE 19 22 1012.0 - 0.0 - - - - - - -
21/05:00pm 26.4 SSE 20 24 1011.8 - 0.0 - - - - - - -
21/04:30pm 26.6 SE 20 23 1011.6 - 0.0 - - - - - - -
21/04:00pm 27.0 SSE 21 25 1011.2 - 0.0 - - - - - - -
21/03:30pm 26.9 SSE 22 25 1011.1 - 0.0 - - - - - - -
21/03:00pm 27.5 SSE 20 23 1011.0 R 0.0 Haze Mostly clear 15 2 2.2 8 SE
21/02:30pm 27.5 SSE 22 25 1010.9 - 0.0 - - - - - - -
21/02:00pm 27.6 SSE 21 24 1011.2 - 0.0 - - - - - - -
21/01:30pm 27.8 SSE 21 25 1011.6 - 0.0 - - - - - - -
21/01:00pm 28.1 SSE 21 24 1011.7 - 0.0 - - - - - - -
21/12:30pm 28.1 SE 21 24 1012.1 - 0.0 - - - - - - -

Other Formats:

Comma delimited format used in spreadsheet applications
http://www.bom.gov.au/fwo/IDQ60701/IDQ60701.94299.axf

JavaScript Object Notation format (JSON) in row-major order
http://www.bom.gov.au/fwo/IDQ60701/IDQ60701.94299.json